Time;durP1;ratioP1;P1;durP2;ratioP2;P2;SDS_P1;SDS_P2;PMS_P1;PMS_P2;Temp;Humidity;BMP_temperature;BMP_pressure;BME280_temperature;BME280_humidity;BME280_pressure;Samples;Min_cycle;Max_cycle;Signal;HPM_P1;HPM_P2
2022/12/06 00:01:23;;;;;;;31.20;14.33;;;;;;;;;;5034471;28;20783;-42
2022/12/06 00:03:53;;;;;;;46.07;19.90;;;;;;;;;;5035259;28;20287;-41
2022/12/06 00:06:22;;;;;;;22.10;12.57;;;;;;;;;;5034400;28;20630;-41
2022/12/06 00:08:50;;;;;;;19.57;11.83;;;;;;;;;;5034467;28;20204;-42
2022/12/06 00:11:20;;;;;;;18.83;11.23;;;;;;;;;;5034551;28;20228;-41
2022/12/06 00:13:47;;;;;;;21.73;11.03;;;;;;;;;;5034513;28;20208;-41
2022/12/06 00:16:16;;;;;;;19.77;11.80;;;;;;;;;;5033753;28;20209;-43
2022/12/06 00:18:44;;;;;;;25.13;14.80;;;;;;;;;;5034969;28;20252;-41
2022/12/06 00:21:16;;;;;;;43.43;14.47;;;;;;;;;;5035476;28;20585;-42
2022/12/06 00:23:45;;;;;;;45.23;16.33;;;;;;;;;;5038139;28;20298;-41
2022/12/06 00:26:13;;;;;;;30.40;13.93;;;;;;;;;;5038194;28;20205;-41
2022/12/06 00:28:40;;;;;;;27.07;12.60;;;;;;;;;;5038214;28;20232;-42
2022/12/06 00:31:10;;;;;;;32.07;16.17;;;;;;;;;;5038165;28;20274;-41
2022/12/06 00:33:36;;;;;;;25.13;13.17;;;;;;;;;;5037376;28;20208;-41
2022/12/06 00:36:10;;;;;;;23.80;12.00;;;;;;;;;;5038435;28;20193;-41
2022/12/06 00:38:37;;;;;;;22.53;12.27;;;;;;;;;;5037833;28;20204;-41
2022/12/06 00:41:07;;;;;;;20.47;12.20;;;;;;;;;;5038173;28;20216;-41
2022/12/06 00:43:34;;;;;;;51.37;18.90;;;;;;;;;;5038087;28;20300;-42
2022/12/06 00:46:03;;;;;;;53.50;20.63;;;;;;;;;;5038259;28;20219;-42
2022/12/06 00:48:30;;;;;;;41.97;16.30;;;;;;;;;;5037752;28;20217;-41
2022/12/06 00:50:57;;;;;;;39.60;15.90;;;;;;;;;;5037700;28;20232;-41
2022/12/06 00:53:24;;;;;;;69.20;34.67;;;;;;;;;;5038049;28;20208;-41
2022/12/06 00:55:52;;;;;;;32.40;17.87;;;;;;;;;;5037905;28;20219;-42
2022/12/06 00:58:18;;;;;;;28.37;13.93;;;;;;;;;;5042424;28;20188;-41
2022/12/06 01:00:47;;;;;;;20.87;12.77;;;;;;;;;;5057294;28;20637;-41
2022/12/06 01:03:14;;;;;;;27.47;16.00;;;;;;;;;;5057794;28;20200;-41
2022/12/06 01:05:42;;;;;;;27.77;14.10;;;;;;;;;;5057202;28;20273;-41
2022/12/06 01:08:10;;;;;;;32.73;15.70;;;;;;;;;;5056755;28;20211;-41
2022/12/06 01:10:38;;;;;;;30.17;14.50;;;;;;;;;;5057789;28;20232;-41
2022/12/06 01:13:05;;;;;;;28.37;14.90;;;;;;;;;;5057117;28;20207;-41
2022/12/06 01:15:35;;;;;;;26.70;13.77;;;;;;;;;;5057050;28;20211;-41
2022/12/06 01:18:03;;;;;;;27.70;16.33;;;;;;;;;;5057001;28;20208;-42
2022/12/06 01:20:30;;;;;;;25.10;13.97;;;;;;;;;;5057281;28;20254;-41
2022/12/06 01:22:57;;;;;;;25.33;14.33;;;;;;;;;;5057151;28;20211;-41
2022/12/06 01:25:24;;;;;;;26.23;13.80;;;;;;;;;;5056816;28;20243;-41
2022/12/06 01:27:52;;;;;;;23.40;13.43;;;;;;;;;;5056669;28;20215;-42
2022/12/06 01:30:19;;;;;;;26.83;17.00;;;;;;;;;;5057159;28;20235;-41
2022/12/06 01:32:46;;;;;;;31.73;16.53;;;;;;;;;;5056319;28;20273;-41
2022/12/06 01:35:13;;;;;;;50.33;19.37;;;;;;;;;;5056872;28;20208;-42
2022/12/06 01:37:40;;;;;;;43.87;19.00;;;;;;;;;;5056754;28;20596;-41
2022/12/06 01:40:08;;;;;;;31.17;15.67;;;;;;;;;;5038922;28;20217;-42
2022/12/06 01:42:35;;;;;;;29.93;15.37;;;;;;;;;;5057116;28;20208;-42
2022/12/06 01:45:03;;;;;;;39.67;20.90;;;;;;;;;;5056494;28;20204;-43
2022/12/06 01:47:36;;;;;;;29.57;15.87;;;;;;;;;;5056572;28;20212;-41
2022/12/06 01:50:16;;;;;;;28.43;15.80;;;;;;;;;;5035840;28;20209;-42
2022/12/06 01:52:47;;;;;;;29.70;16.07;;;;;;;;;;5016252;28;20507;-41
2022/12/06 01:55:15;;;;;;;30.87;15.57;;;;;;;;;;5016054;28;20197;-41
2022/12/06 01:57:42;;;;;;;34.67;16.80;;;;;;;;;;5016459;28;20201;-42
2022/12/06 02:00:09;;;;;;;36.00;17.03;;;;;;;;;;5016408;28;20535;-42
2022/12/06 02:02:36;;;;;;;40.77;18.57;;;;;;;;;;5016263;28;20317;-41
2022/12/06 02:05:04;;;;;;;36.13;17.07;;;;;;;;;;5016272;28;20635;-41
2022/12/06 02:07:31;;;;;;;29.40;15.73;;;;;;;;;;5016214;28;20210;-43
2022/12/06 02:09:59;;;;;;;37.90;21.20;;;;;;;;;;5015683;28;20279;-42
2022/12/06 02:12:26;;;;;;;35.67;18.03;;;;;;;;;;5015573;28;20213;-41
2022/12/06 02:14:54;;;;;;;33.60;16.93;;;;;;;;;;5016359;28;20217;-41
2022/12/06 02:17:20;;;;;;;27.47;15.67;;;;;;;;;;5016424;28;20202;-41
2022/12/06 02:20:18;;;;;;;29.27;16.57;;;;;;;;;;5016290;28;20202;-42
2022/12/06 02:23:00;;;;;;;33.60;16.83;;;;;;;;;;5016083;28;20210;-41
2022/12/06 02:26:00;;;;;;;28.53;15.97;;;;;;;;;;5016520;28;20706;-41
2022/12/06 02:28:43;;;;;;;56.23;21.93;;;;;;;;;;5015263;28;20210;-42
2022/12/06 02:31:14;;;;;;;45.47;20.90;;;;;;;;;;5014909;28;20650;-41
2022/12/06 02:34:12;;;;;;;41.00;19.20;;;;;;;;;;5015475;28;20240;-42
2022/12/06 02:36:43;;;;;;;68.00;31.90;;;;;;;;;;4959290;28;20218;-41
2022/12/06 02:39:23;;;;;;;34.33;18.60;;;;;;;;;;4975134;28;20202;-41
2022/12/06 02:41:55;;;;;;;37.60;18.43;;;;;;;;;;4975956;28;20210;-41
2022/12/06 02:44:44;;;;;;;36.27;18.53;;;;;;;;;;4974572;28;20207;-42
2022/12/06 02:47:13;;;;;;;34.47;19.23;;;;;;;;;;4975045;28;20203;-42
2022/12/06 02:49:43;;;;;;;37.77;19.80;;;;;;;;;;4975170;28;20206;-41
2022/12/06 02:52:12;;;;;;;34.40;19.20;;;;;;;;;;4974771;28;20691;-41
2022/12/06 02:54:40;;;;;;;48.27;21.80;;;;;;;;;;4959111;28;20203;-41
2022/12/06 02:57:07;;;;;;;56.37;23.30;;;;;;;;;;4958834;28;20544;-41
2022/12/06 02:59:34;;;;;;;53.33;23.90;;;;;;;;;;4974974;28;20214;-41
2022/12/06 03:02:03;;;;;;;57.73;26.70;;;;;;;;;;4974891;28;20238;-41
2022/12/06 03:04:45;;;;;;;38.33;21.63;;;;;;;;;;4974844;28;20206;-42
2022/12/06 03:07:31;;;;;;;39.80;20.50;;;;;;;;;;4974991;28;20280;-42
2022/12/06 03:10:16;;;;;;;42.33;20.63;;;;;;;;;;4959040;28;20636;-42
2022/12/06 03:13:12;;;;;;;39.77;20.70;;;;;;;;;;4989271;28;20581;-42
2022/12/06 03:16:16;;;;;;;42.37;22.17;;;;;;;;;;5014597;28;20197;-41
2022/12/06 03:18:48;;;;;;;46.97;22.37;;;;;;;;;;4996758;28;20271;-42
2022/12/06 03:21:42;;;;;;;51.27;23.50;;;;;;;;;;5015948;28;20243;-41
2022/12/06 03:24:12;;;;;;;53.30;22.47;;;;;;;;;;5012238;28;20295;-42
2022/12/06 03:26:41;;;;;;;52.57;22.87;;;;;;;;;;5015676;28;20237;-41
2022/12/06 03:29:09;;;;;;;52.50;24.57;;;;;;;;;;5014338;28;20591;-41
2022/12/06 03:31:38;;;;;;;45.63;23.30;;;;;;;;;;5014263;28;20236;-42
2022/12/06 03:34:10;;;;;;;47.97;22.10;;;;;;;;;;5014404;28;20523;-42
2022/12/06 03:36:38;;;;;;;45.30;21.67;;;;;;;;;;5014883;28;20244;-41
2022/12/06 03:39:06;;;;;;;42.03;20.67;;;;;;;;;;5015318;28;20209;-41
2022/12/06 03:41:45;;;;;;;44.67;23.50;;;;;;;;;;5014622;28;20577;-42
2022/12/06 03:44:12;;;;;;;46.73;24.53;;;;;;;;;;5014776;28;20205;-41
2022/12/06 03:46:44;;;;;;;73.63;27.27;;;;;;;;;;5015153;28;20185;-41
2022/12/06 03:49:15;;;;;;;60.97;24.33;;;;;;;;;;5014485;28;20270;-41
2022/12/06 03:51:43;;;;;;;57.13;24.93;;;;;;;;;;5013885;28;20217;-41
2022/12/06 03:54:11;;;;;;;49.90;23.50;;;;;;;;;;5014299;28;20259;-41
2022/12/06 03:56:38;;;;;;;110.93;49.67;;;;;;;;;;5016958;28;20201;-42
2022/12/06 03:59:07;;;;;;;44.10;23.13;;;;;;;;;;5018950;28;20302;-41
2022/12/06 04:01:34;;;;;;;45.27;22.80;;;;;;;;;;5018740;28;20211;-41
2022/12/06 04:04:01;;;;;;;43.77;21.63;;;;;;;;;;5019259;28;20220;-41
2022/12/06 04:06:28;;;;;;;46.70;22.90;;;;;;;;;;5018851;28;20213;-41
2022/12/06 04:09:51;;;;;;;47.67;22.90;;;;;;;;;;5018647;28;20205;-41
2022/12/06 04:11:42;;;;;;;61.00;26.27;;;;;;;;;;5018614;28;20233;-41
2022/12/06 04:14:09;;;;;;;56.60;23.13;;;;;;;;;;5018446;28;20201;-41
2022/12/06 04:19:22;;;;;;;49.40;22.50;;;;;;;;;;5018587;28;20202;-43
2022/12/06 04:24:34;;;;;;;46.47;23.63;;;;;;;;;;5018504;28;20659;-41
2022/12/06 04:40:48;;;;;;;51.37;24.47;;;;;;;;;;5018536;28;20193;-41
2022/12/06 04:46:01;;;;;;;55.27;25.63;;;;;;;;;;5018341;28;20264;-42
2022/12/06 04:48:27;;;;;;;51.83;23.93;;;;;;;;;;5017975;28;20647;-44
2022/12/06 04:50:55;;;;;;;51.37;27.43;;;;;;;;;;5019754;28;20225;-42
2022/12/06 04:53:22;;;;;;;50.00;24.87;;;;;;;;;;5036416;28;20255;-42
2022/12/06 04:55:49;;;;;;;51.00;23.67;;;;;;;;;;5037393;28;20530;-42
2022/12/06 04:58:16;;;;;;;44.90;22.07;;;;;;;;;;5037577;28;20205;-41
2022/12/06 05:00:43;;;;;;;46.57;23.77;;;;;;;;;;5037533;28;20208;-40
2022/12/06 05:03:11;;;;;;;66.47;27.67;;;;;;;;;;5037514;28;20593;-41
2022/12/06 05:05:38;;;;;;;66.87;27.33;;;;;;;;;;5037243;28;20205;-54
2022/12/06 05:08:06;;;;;;;71.17;27.13;;;;;;;;;;5028522;28;20228;-41
2022/12/06 05:10:33;;;;;;;49.73;23.23;;;;;;;;;;5036199;28;20743;-43
2022/12/06 05:13:00;;;;;;;100.53;44.97;;;;;;;;;;5023755;28;20227;-41
2022/12/06 05:15:28;;;;;;;45.80;25.10;;;;;;;;;;5023386;28;20225;-43
2022/12/06 05:17:55;;;;;;;47.10;23.53;;;;;;;;;;5024731;28;20216;-42
2022/12/06 05:20:23;;;;;;;41.00;21.93;;;;;;;;;;5023038;28;20228;-43
2022/12/06 05:22:50;;;;;;;45.03;23.27;;;;;;;;;;5033953;28;20311;-41
2022/12/06 05:25:17;;;;;;;43.20;23.63;;;;;;;;;;5036602;28;20618;-41
2022/12/06 05:27:44;;;;;;;55.93;26.20;;;;;;;;;;5036140;28;20236;-41
2022/12/06 05:30:11;;;;;;;56.10;24.33;;;;;;;;;;5035552;28;20232;-41
2022/12/06 05:32:39;;;;;;;44.17;22.90;;;;;;;;;;5035356;28;20294;-41
2022/12/06 05:35:06;;;;;;;53.93;23.47;;;;;;;;;;5035516;28;20231;-41
2022/12/06 05:37:33;;;;;;;57.00;25.20;;;;;;;;;;5035372;28;20239;-44
2022/12/06 05:40:00;;;;;;;51.77;25.63;;;;;;;;;;5036140;28;20232;-40
2022/12/06 05:42:28;;;;;;;51.87;24.67;;;;;;;;;;5035708;28;20298;-42
2022/12/06 05:44:55;;;;;;;46.43;23.30;;;;;;;;;;5034420;28;20228;-43
2022/12/06 05:47:21;;;;;;;52.10;24.90;;;;;;;;;;5035443;28;20583;-41
2022/12/06 05:49:50;;;;;;;57.37;25.97;;;;;;;;;;5035799;28;20240;-40
2022/12/06 05:52:16;;;;;;;57.70;26.83;;;;;;;;;;5034496;28;20566;-41
2022/12/06 05:54:43;;;;;;;55.50;25.27;;;;;;;;;;5033788;28;20232;-41
2022/12/06 05:57:10;;;;;;;54.33;26.13;;;;;;;;;;5034258;28;20593;-41
2022/12/06 05:59:37;;;;;;;109.93;57.07;;;;;;;;;;5033938;28;20224;-41
2022/12/06 06:02:04;;;;;;;49.07;27.57;;;;;;;;;;5035212;28;20225;-42
2022/12/06 06:04:31;;;;;;;51.43;25.00;;;;;;;;;;5034661;28;20233;-42
2022/12/06 06:06:58;;;;;;;46.70;22.83;;;;;;;;;;5034644;28;20252;-43
2022/12/06 06:09:26;;;;;;;47.20;23.47;;;;;;;;;;5035016;28;20630;-43
2022/12/06 06:11:53;;;;;;;48.43;24.43;;;;;;;;;;5034905;28;20240;-41
2022/12/06 06:14:20;;;;;;;59.00;26.37;;;;;;;;;;5035026;28;20243;-42
2022/12/06 06:16:47;;;;;;;45.53;22.53;;;;;;;;;;5035251;28;20240;-41
2022/12/06 06:19:14;;;;;;;49.10;23.77;;;;;;;;;;5034925;28;20703;-42
2022/12/06 06:21:41;;;;;;;49.50;24.43;;;;;;;;;;5035572;28;20236;-41
2022/12/06 06:24:08;;;;;;;52.77;28.67;;;;;;;;;;5035710;28;20236;-42
2022/12/06 06:26:35;;;;;;;42.07;23.33;;;;;;;;;;5035767;28;20201;-41
2022/12/06 06:29:02;;;;;;;40.50;21.97;;;;;;;;;;5035728;28;20586;-42
2022/12/06 06:31:29;;;;;;;41.20;23.00;;;;;;;;;;5035298;28;20224;-41
2022/12/06 06:33:56;;;;;;;50.90;23.63;;;;;;;;;;5035567;28;20205;-41
2022/12/06 06:36:23;;;;;;;55.80;27.50;;;;;;;;;;5035585;28;20200;-41
2022/12/06 06:38:50;;;;;;;45.90;24.47;;;;;;;;;;5035348;28;20239;-42
2022/12/06 06:41:17;;;;;;;67.10;25.73;;;;;;;;;;5035169;28;20215;-44
2022/12/06 06:43:44;;;;;;;57.00;23.73;;;;;;;;;;5034644;28;20204;-43
2022/12/06 06:46:11;;;;;;;56.47;25.70;;;;;;;;;;5035119;28;20236;-41
2022/12/06 06:48:38;;;;;;;55.97;24.63;;;;;;;;;;5035190;28;20219;-41
2022/12/06 06:51:08;;;;;;;53.77;28.07;;;;;;;;;;5035362;28;20208;-41
2022/12/06 06:53:36;;;;;;;40.43;23.17;;;;;;;;;;5035481;28;20622;-43
2022/12/06 06:56:04;;;;;;;47.67;21.77;;;;;;;;;;5035430;28;20622;-42
2022/12/06 06:58:31;;;;;;;44.77;22.20;;;;;;;;;;5035981;28;20215;-41
2022/12/06 07:01:00;;;;;;;43.10;24.13;;;;;;;;;;5035412;28;20288;-41
2022/12/06 07:03:28;;;;;;;50.70;24.17;;;;;;;;;;5035607;28;20208;-41
2022/12/06 07:06:00;;;;;;;56.10;27.37;;;;;;;;;;5035214;28;20207;-42
2022/12/06 07:08:28;;;;;;;100.77;43.93;;;;;;;;;;5035515;28;20259;-43
2022/12/06 07:10:55;;;;;;;78.70;34.80;;;;;;;;;;5035128;28;20224;-44
2022/12/06 07:13:24;;;;;;;60.37;28.93;;;;;;;;;;5035047;28;20247;-41
2022/12/06 07:15:51;;;;;;;52.93;27.77;;;;;;;;;;5035260;28;20205;-42
2022/12/06 07:18:19;;;;;;;42.40;23.63;;;;;;;;;;5035142;28;20266;-41
2022/12/06 07:20:46;;;;;;;42.83;23.03;;;;;;;;;;5034901;28;20284;-43
2022/12/06 07:23:14;;;;;;;42.40;22.27;;;;;;;;;;5035118;28;20227;-41
2022/12/06 07:25:41;;;;;;;49.83;24.07;;;;;;;;;;5034081;28;20224;-41
2022/12/06 07:28:08;;;;;;;68.50;28.27;;;;;;;;;;5035058;28;20208;-42
2022/12/06 07:30:35;;;;;;;60.73;27.57;;;;;;;;;;5034439;28;20201;-42
2022/12/06 07:33:02;;;;;;;54.77;26.87;;;;;;;;;;5034885;28;20232;-43
2022/12/06 07:35:29;;;;;;;43.07;23.53;;;;;;;;;;5034646;28;20216;-42
2022/12/06 07:38:16;;;;;;;46.27;23.13;;;;;;;;;;5035092;28;20197;-41
2022/12/06 07:40:43;;;;;;;45.50;23.17;;;;;;;;;;5035001;28;20660;-41
2022/12/06 07:46:15;;;;;;;53.30;25.47;;;;;;;;;;5034932;28;20222;-41
2022/12/06 07:48:42;;;;;;;76.07;34.17;;;;;;;;;;5034868;28;20200;-42
2022/12/06 07:51:09;;;;;;;45.50;24.00;;;;;;;;;;5034525;28;20244;-42
2022/12/06 07:53:36;;;;;;;61.60;26.03;;;;;;;;;;5034432;28;20676;-43
2022/12/06 07:56:06;;;;;;;65.00;27.47;;;;;;;;;;5034491;28;20213;-42
2022/12/06 07:58:34;;;;;;;47.03;23.20;;;;;;;;;;5034560;28;20209;-42
2022/12/06 08:01:02;;;;;;;55.53;23.77;;;;;;;;;;5034830;28;20204;-41
2022/12/06 08:03:29;;;;;;;47.07;26.37;;;;;;;;;;5034645;28;20219;-43
2022/12/06 08:05:56;;;;;;;53.70;26.07;;;;;;;;;;5034467;28;20209;-41
2022/12/06 08:08:24;;;;;;;44.73;24.03;;;;;;;;;;5034717;28;20204;-41
2022/12/06 08:10:58;;;;;;;42.23;22.80;;;;;;;;;;5034480;28;20209;-40
2022/12/06 08:13:26;;;;;;;46.50;24.67;;;;;;;;;;5034718;28;20236;-41
2022/12/06 08:15:53;;;;;;;52.90;24.63;;;;;;;;;;5034279;28;20220;-41
2022/12/06 08:18:21;;;;;;;51.27;24.40;;;;;;;;;;5034793;28;20201;-41
2022/12/06 08:20:48;;;;;;;45.93;22.67;;;;;;;;;;5034434;28;20209;-41
2022/12/06 08:23:15;;;;;;;44.03;22.33;;;;;;;;;;5034511;28;20271;-41
2022/12/06 08:25:42;;;;;;;46.80;22.83;;;;;;;;;;5034353;28;20233;-43
2022/12/06 08:28:09;;;;;;;44.27;22.27;;;;;;;;;;5034518;28;20535;-41
2022/12/06 08:30:39;;;;;;;40.80;22.67;;;;;;;;;;5034261;28;20201;-43
2022/12/06 08:33:07;;;;;;;40.63;21.50;;;;;;;;;;5034511;28;20213;-41
2022/12/06 08:35:36;;;;;;;42.73;21.97;;;;;;;;;;5034441;28;20209;-43
2022/12/06 08:38:03;;;;;;;43.43;21.73;;;;;;;;;;5034300;28;20204;-42
2022/12/06 08:40:30;;;;;;;49.10;23.90;;;;;;;;;;5034333;28;20209;-42
2022/12/06 08:42:57;;;;;;;54.33;23.93;;;;;;;;;;5034629;28;20219;-46
2022/12/06 08:45:24;;;;;;;57.47;25.33;;;;;;;;;;5037851;28;20208;-43
2022/12/06 08:47:51;;;;;;;58.27;24.43;;;;;;;;;;5037740;28;20196;-43
2022/12/06 08:50:18;;;;;;;54.27;24.47;;;;;;;;;;5037743;28;20212;-41
2022/12/06 08:52:45;;;;;;;42.37;24.37;;;;;;;;;;5037975;28;20221;-41
2022/12/06 08:55:12;;;;;;;41.20;22.90;;;;;;;;;;5037510;28;20201;-43
2022/12/06 08:57:39;;;;;;;35.57;22.17;;;;;;;;;;5037512;28;20227;-40
2022/12/06 09:00:07;;;;;;;40.90;22.90;;;;;;;;;;5037579;28;20222;-42
2022/12/06 09:02:34;;;;;;;44.87;21.67;;;;;;;;;;5037449;28;20216;-40
2022/12/06 09:05:01;;;;;;;53.97;25.30;;;;;;;;;;5037215;28;20196;-41
2022/12/06 09:07:28;;;;;;;48.60;22.20;;;;;;;;;;5038141;28;20523;-41
2022/12/06 09:09:55;;;;;;;45.70;22.03;;;;;;;;;;5037594;28;20208;-43
2022/12/06 09:12:22;;;;;;;42.37;22.27;;;;;;;;;;5037349;28;20240;-41
2022/12/06 09:14:49;;;;;;;44.03;22.17;;;;;;;;;;5036661;28;20204;-41
2022/12/06 09:17:16;;;;;;;45.70;25.40;;;;;;;;;;5037313;28;20275;-42
2022/12/06 09:19:43;;;;;;;36.33;20.47;;;;;;;;;;5037987;28;20287;-42
2022/12/06 09:22:10;;;;;;;35.90;20.33;;;;;;;;;;5037406;28;20220;-41
2022/12/06 09:24:37;;;;;;;42.17;19.37;;;;;;;;;;5037068;28;20243;-41
2022/12/06 09:27:04;;;;;;;40.03;21.47;;;;;;;;;;5036970;28;20270;-41
2022/12/06 09:29:36;;;;;;;59.10;25.73;;;;;;;;;;5037206;28;20211;-41
2022/12/06 09:32:07;;;;;;;45.90;22.60;;;;;;;;;;5037105;28;20192;-42
2022/12/06 09:34:34;;;;;;;56.13;23.73;;;;;;;;;;5036894;28;20614;-42
2022/12/06 09:37:06;;;;;;;46.97;22.10;;;;;;;;;;5036624;28;20543;-42
2022/12/06 09:39:40;;;;;;;48.93;22.40;;;;;;;;;;5037173;28;20210;-41
2022/12/06 09:42:10;;;;;;;34.53;19.37;;;;;;;;;;5036962;28;20201;-41
2022/12/06 09:45:08;;;;;;;31.10;18.03;;;;;;;;;;5036444;28;20215;-41
2022/12/06 09:48:13;;;;;;;34.87;19.23;;;;;;;;;;5036251;28;20209;-41
2022/12/06 09:50:53;;;;;;;32.47;19.30;;;;;;;;;;5036694;28;20201;-41
2022/12/06 09:53:45;;;;;;;42.23;21.70;;;;;;;;;;5035648;28;20229;-42
2022/12/06 09:56:26;;;;;;;36.70;19.03;;;;;;;;;;5036484;28;20629;-41
2022/12/06 09:59:07;;;;;;;37.77;19.90;;;;;;;;;;5036311;28;20723;-42
2022/12/06 10:01:59;;;;;;;33.80;17.97;;;;;;;;;;5035708;28;20189;-41
2022/12/06 10:04:49;;;;;;;32.20;17.80;;;;;;;;;;5036987;28;20280;-41
2022/12/06 10:07:43;;;;;;;33.40;18.63;;;;;;;;;;5017553;28;20207;-41
2022/12/06 10:10:27;;;;;;;41.10;18.57;;;;;;;;;;5036614;28;20200;-41
2022/12/06 10:13:00;;;;;;;29.57;16.87;;;;;;;;;;5035149;28;20271;-41
2022/12/06 10:15:51;;;;;;;31.87;17.53;;;;;;;;;;5036004;28;20205;-42
2022/12/06 10:18:36;;;;;;;37.30;20.60;;;;;;;;;;5035360;28;20201;-42
2022/12/06 10:21:34;;;;;;;38.37;20.23;;;;;;;;;;5035586;28;20239;-42
2022/12/06 10:24:26;;;;;;;44.03;20.80;;;;;;;;;;5035908;28;20247;-41
2022/12/06 10:26:54;;;;;;;49.07;22.63;;;;;;;;;;5035252;28;20184;-41
2022/12/06 10:29:37;;;;;;;31.87;17.07;;;;;;;;;;5035210;28;20713;-41
2022/12/06 10:32:21;;;;;;;47.77;22.93;;;;;;;;;;5034919;28;20637;-42
2022/12/06 10:34:48;;;;;;;27.50;16.23;;;;;;;;;;5035637;28;20630;-42
2022/12/06 10:37:41;;;;;;;28.40;16.80;;;;;;;;;;5036153;28;20205;-41
2022/12/06 10:40:40;;;;;;;28.77;15.83;;;;;;;;;;5035008;28;20240;-41
2022/12/06 10:43:24;;;;;;;32.50;17.40;;;;;;;;;;5031018;28;20205;-41
2022/12/06 10:48:59;;;;;;;66.07;27.97;;;;;;;;;;5035667;28;20185;-42
2022/12/06 10:51:39;;;;;;;35.97;17.80;;;;;;;;;;5035815;28;20201;-42
2022/12/06 10:54:31;;;;;;;28.43;15.50;;;;;;;;;;5035525;28;20573;-41
2022/12/06 10:57:01;;;;;;;196.03;79.93;;;;;;;;;;5035615;28;20205;-42
2022/12/06 10:59:41;;;;;;;34.23;20.70;;;;;;;;;;5034464;28;20204;-41
2022/12/06 11:02:36;;;;;;;28.97;16.67;;;;;;;;;;5001443;28;20239;-41
2022/12/06 11:05:14;;;;;;;27.67;15.40;;;;;;;;;;5029175;28;20213;-41
2022/12/06 11:07:42;;;;;;;26.20;14.90;;;;;;;;;;5034131;28;20204;-41
2022/12/06 11:10:31;;;;;;;36.63;18.20;;;;;;;;;;5034108;28;20212;-43
2022/12/06 11:13:15;;;;;;;36.80;19.53;;;;;;;;;;5034404;28;20278;-41
2022/12/06 11:15:52;;;;;;;34.23;16.13;;;;;;;;;;5035276;28;20201;-44
2022/12/06 11:18:20;;;;;;;26.40;14.77;;;;;;;;;;5035250;28;20193;-41
2022/12/06 11:20:49;;;;;;;25.87;14.93;;;;;;;;;;5034064;28;20208;-42
2022/12/06 11:23:52;;;;;;;24.47;15.43;;;;;;;;;;5034161;28;20208;-42
2022/12/06 11:26:32;;;;;;;22.20;13.40;;;;;;;;;;5034013;28;20204;-42
2022/12/06 11:29:05;;;;;;;25.30;13.80;;;;;;;;;;5034019;28;20197;-42
2022/12/06 11:31:36;;;;;;;23.97;14.17;;;;;;;;;;5035002;28;20208;-41
2022/12/06 11:34:08;;;;;;;24.27;13.53;;;;;;;;;;5034739;28;20213;-42
2022/12/06 11:36:36;;;;;;;28.20;17.87;;;;;;;;;;5034140;28;20209;-41
2022/12/06 11:39:03;;;;;;;26.80;15.47;;;;;;;;;;5034570;28;20721;-41
2022/12/06 11:41:33;;;;;;;37.60;17.20;;;;;;;;;;5034918;28;20574;-42
2022/12/06 11:44:01;;;;;;;33.50;16.53;;;;;;;;;;5034693;28;20504;-42
2022/12/06 11:46:28;;;;;;;33.07;16.43;;;;;;;;;;5034863;28;20211;-42
2022/12/06 11:49:03;;;;;;;28.33;15.67;;;;;;;;;;5035001;28;20211;-41
2022/12/06 11:51:31;;;;;;;35.67;20.80;;;;;;;;;;5033755;28;20201;-42
2022/12/06 11:54:13;;;;;;;24.13;15.73;;;;;;;;;;5033628;28;20228;-42
2022/12/06 11:56:40;;;;;;;22.67;13.90;;;;;;;;;;5034627;28;20278;-40
2022/12/06 11:59:27;;;;;;;23.10;13.43;;;;;;;;;;5033799;28;20262;-42
2022/12/06 12:01:57;;;;;;;21.47;13.57;;;;;;;;;;5033734;28;20262;-41
2022/12/06 12:04:44;;;;;;;36.87;16.90;;;;;;;;;;5033542;28;20209;-42
2022/12/06 12:07:15;;;;;;;32.43;15.20;;;;;;;;;;5034579;28;20205;-42
2022/12/06 12:09:45;;;;;;;30.00;15.10;;;;;;;;;;5034986;28;20259;-42
2022/12/06 12:12:21;;;;;;;25.13;13.87;;;;;;;;;;5033376;28;20205;-41
2022/12/06 12:14:56;;;;;;;45.57;18.90;;;;;;;;;;5034259;28;20208;-41
2022/12/06 12:17:29;;;;;;;21.37;13.73;;;;;;;;;;5035599;28;20208;-43
2022/12/06 12:19:59;;;;;;;17.23;11.93;;;;;;;;;;5037250;28;20676;-43
2022/12/06 12:22:34;;;;;;;21.20;12.77;;;;;;;;;;5038358;28;20212;-43
2022/12/06 12:25:20;;;;;;;19.77;12.50;;;;;;;;;;5037963;28;20229;-41
2022/12/06 12:27:51;;;;;;;28.90;15.97;;;;;;;;;;5038740;28;20189;-41
2022/12/06 12:30:24;;;;;;;42.97;18.20;;;;;;;;;;5038236;28;20208;-42
2022/12/06 12:33:15;;;;;;;35.13;15.93;;;;;;;;;;5037882;28;20690;-41
2022/12/06 12:35:44;;;;;;;29.63;14.80;;;;;;;;;;5037897;28;20201;-41
2022/12/06 12:38:33;;;;;;;26.87;13.90;;;;;;;;;;5037271;28;20528;-41
2022/12/06 12:41:03;;;;;;;62.27;29.47;;;;;;;;;;5038291;28;20189;-41
2022/12/06 12:43:32;;;;;;;27.43;17.50;;;;;;;;;;5038059;28;20208;-43
2022/12/06 12:46:14;;;;;;;20.00;12.83;;;;;;;;;;5037827;28;20201;-42
2022/12/06 12:48:44;;;;;;;24.00;14.67;;;;;;;;;;5038321;28;20581;-42
2022/12/06 12:51:46;;;;;;;23.63;14.33;;;;;;;;;;5036727;28;20243;-41
2022/12/06 12:54:21;;;;;;;35.93;16.20;;;;;;;;;;4976953;28;20238;-43
2022/12/06 12:56:48;;;;;;;32.13;15.83;;;;;;;;;;4972919;28;20591;-41
2022/12/06 12:59:19;;;;;;;29.80;15.20;;;;;;;;;;4976863;28;20564;-41
2022/12/06 13:01:53;;;;;;;26.17;13.90;;;;;;;;;;4977121;28;20202;-42
2022/12/06 13:04:42;;;;;;;24.33;14.17;;;;;;;;;;4977192;28;20656;-41
2022/12/06 13:07:09;;;;;;;24.10;14.33;;;;;;;;;;4976921;28;20513;-41
2022/12/06 13:09:42;;;;;;;23.07;13.47;;;;;;;;;;4977232;28;20207;-43
2022/12/06 13:12:18;;;;;;;21.43;13.43;;;;;;;;;;4976933;28;20226;-42
2022/12/06 13:14:51;;;;;;;22.60;13.73;;;;;;;;;;4976642;28;20269;-43
2022/12/06 13:17:21;;;;;;;20.87;13.03;;;;;;;;;;4990034;28;20198;-45
2022/12/06 13:19:49;;;;;;;25.43;14.20;;;;;;;;;;4978842;28;20195;-45
2022/12/06 13:22:26;;;;;;;42.43;17.10;;;;;;;;;;4976469;28;20624;-46
2022/12/06 13:25:04;;;;;;;34.20;16.37;;;;;;;;;;4976343;28;20230;-45
2022/12/06 13:27:35;;;;;;;28.17;14.43;;;;;;;;;;4988496;28;20200;-45
2022/12/06 13:30:18;;;;;;;28.30;15.10;;;;;;;;;;5035437;28;20199;-45
2022/12/06 13:32:49;;;;;;;53.47;26.80;;;;;;;;;;5037436;28;20193;-46
2022/12/06 13:35:27;;;;;;;38.00;21.53;;;;;;;;;;5016399;28;20304;-45
2022/12/06 13:37:59;;;;;;;36.40;20.37;;;;;;;;;;4999771;28;20208;-45
2022/12/06 13:40:32;;;;;;;111.53;48.30;;;;;;;;;;5028152;28;20192;-44
2022/12/06 13:43:04;;;;;;;43.70;23.17;;;;;;;;;;5055159;28;20210;-45
2022/12/06 13:45:47;;;;;;;62.63;28.43;;;;;;;;;;5031157;28;20196;-44
2022/12/06 13:48:51;;;;;;;42.80;18.97;;;;;;;;;;5028559;28;20239;-47
2022/12/06 13:51:45;;;;;;;35.17;17.00;;;;;;;;;;5029234;28;20562;-45
2022/12/06 13:54:12;;;;;;;32.47;17.10;;;;;;;;;;5023412;28;20244;-46
2022/12/06 13:56:39;;;;;;;27.97;15.77;;;;;;;;;;5015470;28;20248;-45
2022/12/06 13:59:09;;;;;;;21.20;13.77;;;;;;;;;;5024353;28;20564;-46
2022/12/06 14:01:37;;;;;;;21.37;14.27;;;;;;;;;;5016068;28;20226;-45
2022/12/06 14:04:25;;;;;;;24.13;13.67;;;;;;;;;;5015158;28;20687;-46
2022/12/06 14:06:59;;;;;;;21.77;14.30;;;;;;;;;;5015422;28;20229;-45
2022/12/06 14:09:34;;;;;;;42.83;19.50;;;;;;;;;;5015749;28;20260;-46
2022/12/06 14:12:12;;;;;;;46.13;21.53;;;;;;;;;;5015470;28;20280;-47
2022/12/06 14:14:39;;;;;;;58.23;22.93;;;;;;;;;;5014876;28;20252;-45
2022/12/06 14:17:14;;;;;;;41.50;17.13;;;;;;;;;;5015004;28;20218;-45
2022/12/06 14:20:02;;;;;;;31.93;16.07;;;;;;;;;;5032793;28;20241;-47
2022/12/06 14:22:33;;;;;;;25.80;14.80;;;;;;;;;;5054141;28;20227;-43
2022/12/06 14:25:06;;;;;;;28.10;15.07;;;;;;;;;;5024889;28;20261;-49
2022/12/06 14:27:43;;;;;;;36.47;21.40;;;;;;;;;;5014836;28;20221;-46
2022/12/06 14:30:13;;;;;;;26.37;15.90;;;;;;;;;;5015041;28;20564;-45
2022/12/06 14:32:43;;;;;;;24.17;14.30;;;;;;;;;;5011542;28;20691;-45
2022/12/06 14:35:12;;;;;;;20.43;12.40;;;;;;;;;;5020220;28;20244;-46
2022/12/06 14:38:02;;;;;;;18.80;12.70;;;;;;;;;;5031196;28;20232;-48
2022/12/06 14:43:29;;;;;;;33.73;15.87;;;;;;;;;;5032088;28;20232;-49
2022/12/06 14:45:58;;;;;;;26.90;14.80;;;;;;;;;;5014708;28;20564;-45
2022/12/06 14:48:25;;;;;;;22.57;13.00;;;;;;;;;;5014363;28;20557;-45
2022/12/06 14:50:58;;;;;;;22.33;12.60;;;;;;;;;;5035176;28;20263;-44
2022/12/06 14:53:33;;;;;;;29.47;16.70;;;;;;;;;;5053695;28;20247;-46
2022/12/06 14:56:30;;;;;;;20.47;12.10;;;;;;;;;;5014714;28;20295;-46
2022/12/06 14:58:58;;;;;;;23.50;14.00;;;;;;;;;;5014362;28;20217;-46
2022/12/06 15:01:27;;;;;;;20.83;12.50;;;;;;;;;;5014779;28;20225;-45
2022/12/06 15:04:08;;;;;;;24.37;15.60;;;;;;;;;;5015601;28;20577;-50
2022/12/06 15:06:36;;;;;;;30.17;14.47;;;;;;;;;;5019729;28;20224;-45
2022/12/06 15:09:13;;;;;;;32.87;15.97;;;;;;;;;;5024400;28;20224;-44
2022/12/06 15:14:45;;;;;;;26.23;14.33;;;;;;;;;;5018642;28;20286;-43
2022/12/06 15:17:12;;;;;;;28.13;14.33;;;;;;;;;;5022667;28;20225;-45
2022/12/06 15:19:45;;;;;;;48.03;28.10;;;;;;;;;;5023138;28;20235;-44